Smugglers Notch, Vermont
Current Conditions -  °F | °C
As of 11:54 AM on Saturday 25 Oct 2014 (Local Time) from KMVL Reporting Station
Clear Clear  
Wind Chill: 56°   Ceiling: Unl
Heat Index: 56°   Visibility: 10mi
Dew Point: 38°   Wind: 0mph
Humidity: 51%   Direction: NA
Pressure: 29.69"   Gusts: NA
Location:  44.6639°N, 72.7787°W
Report Text: KMVL 251554Z AUTO 00000KT 10SM CLR 13/03 A2969 RMK AO2 SLP059 T01330033
Loading
Personal Weather Stations






























Interactive Weather Map
Tropical Storm Tracking
New forecast layout! Learn more

10-Day Weather Forecast

Advertisements
Track Severe Weather on mobile